sensor_id;sensor_type;location;lat;lon;timestamp;P1;durP1;ratioP1;P2;durP2;ratioP2
27907;SDS011;15249;48.092;11.484;2022-10-16T00:00:08;0;;;0;;
27907;SDS011;15249;48.092;11.484;2022-10-16T00:01:12;0;;;0;;
27907;SDS011;15249;48.092;11.484;2022-10-16T00:02:14;0;;;0;;
27907;SDS011;15249;48.092;11.484;2022-10-16T00:03:15;0;;;0;;
27907;SDS011;15249;48.092;11.484;2022-10-16T00:04:15;0;;;0;;
27907;SDS011;15249;48.092;11.484;2022-10-16T00:05:16;0;;;0;;
27907;SDS011;15249;48.092;11.484;2022-10-16T00:06:17;0;;;0;;
27907;SDS011;15249;48.092;11.484;2022-10-16T00:07:19;0;;;0;;
27907;SDS011;15249;48.092;11.484;2022-10-16T00:08:20;0;;;0;;
27907;SDS011;15249;48.092;11.484;2022-10-16T00:09:20;0;;;0;;
27907;SDS011;15249;48.092;11.484;2022-10-16T00:10:20;0;;;0;;
27907;SDS011;15249;48.092;11.484;2022-10-16T08:33:47;0;;;0;;
27907;SDS011;15249;48.092;11.484;2022-10-16T08:34:48;0;;;0;;
27907;SDS011;15249;48.092;11.484;2022-10-16T08:35:50;0;;;0;;
27907;SDS011;15249;48.092;11.484;2022-10-16T08:36:52;0;;;0;;
27907;SDS011;15249;48.092;11.484;2022-10-16T08:37:53;0;;;0;;
27907;SDS011;15249;48.092;11.484;2022-10-16T08:38:54;0;;;0;;
27907;SDS011;15249;48.092;11.484;2022-10-16T08:39:54;0;;;0;;
27907;SDS011;15249;48.092;11.484;2022-10-16T08:40:56;0;;;0;;
27907;SDS011;15249;48.092;11.484;2022-10-16T08:42:15;0;;;0;;
27907;SDS011;15249;48.092;11.484;2022-10-16T08:43:27;0;;;0;;
27907;SDS011;15249;48.092;11.484;2022-10-16T08:44:45;0;;;0;;
27907;SDS011;15249;48.092;11.484;2022-10-16T08:46:05;0;;;0;;
27907;SDS011;15249;48.092;11.484;2022-10-16T08:47:17;0;;;0;;
27907;SDS011;15249;48.092;11.484;2022-10-16T08:48:23;0;;;0;;
27907;SDS011;15249;48.092;11.484;2022-10-16T08:49:31;0;;;0;;
27907;SDS011;15249;48.092;11.484;2022-10-16T08:50:32;0;;;0;;
27907;SDS011;15249;48.092;11.484;2022-10-16T08:51:37;0;;;0;;
27907;SDS011;15249;48.092;11.484;2022-10-16T08:52:40;0;;;0;;
27907;SDS011;15249;48.092;11.484;2022-10-16T08:53:45;0;;;0;;
27907;SDS011;15249;48.092;11.484;2022-10-16T08:54:51;0;;;0;;
27907;SDS011;15249;48.092;11.484;2022-10-16T08:55:55;0;;;0;;
27907;SDS011;15249;48.092;11.484;2022-10-16T08:56:56;0;;;0;;
27907;SDS011;15249;48.092;11.484;2022-10-16T08:57:58;0;;;0;;
27907;SDS011;15249;48.092;11.484;2022-10-16T08:58:59;0;;;0;;
27907;SDS011;15249;48.092;11.484;2022-10-16T09:00:00;0;;;0;;
27907;SDS011;15249;48.092;11.484;2022-10-16T09:01:12;0;;;0;;
27907;SDS011;15249;48.092;11.484;2022-10-16T09:02:19;0;;;0;;
27907;SDS011;15249;48.092;11.484;2022-10-16T09:03:30;0;;;0;;
27907;SDS011;15249;48.092;11.484;2022-10-16T09:04:44;0;;;0;;
27907;SDS011;15249;48.092;11.484;2022-10-16T09:05:57;0;;;0;;
27907;SDS011;15249;48.092;11.484;2022-10-16T09:07:08;0;;;0;;
27907;SDS011;15249;48.092;11.484;2022-10-16T09:08:15;0;;;0;;
27907;SDS011;15249;48.092;11.484;2022-10-16T09:09:30;0;;;0;;
27907;SDS011;15249;48.092;11.484;2022-10-16T09:10:43;0;;;0;;
27907;SDS011;15249;48.092;11.484;2022-10-16T09:11:51;0;;;0;;
27907;SDS011;15249;48.092;11.484;2022-10-16T09:12:58;0;;;0;;
27907;SDS011;15249;48.092;11.484;2022-10-16T09:14:13;0;;;0;;
27907;SDS011;15249;48.092;11.484;2022-10-16T09:15:29;0;;;0;;
27907;SDS011;15249;48.092;11.484;2022-10-16T09:16:35;0;;;0;;
27907;SDS011;15249;48.092;11.484;2022-10-16T09:17:44;0;;;0;;
27907;SDS011;15249;48.092;11.484;2022-10-16T09:18:54;0;;;0;;
27907;SDS011;15249;48.092;11.484;2022-10-16T09:20:07;0;;;0;;
27907;SDS011;15249;48.092;11.484;2022-10-16T09:21:19;0;;;0;;
27907;SDS011;15249;48.092;11.484;2022-10-16T09:22:25;0;;;0;;
27907;SDS011;15249;48.092;11.484;2022-10-16T09:23:28;0;;;0;;
27907;SDS011;15249;48.092;11.484;2022-10-16T09:24:29;0;;;0;;
27907;SDS011;15249;48.092;11.484;2022-10-16T09:25:30;0;;;0;;
27907;SDS011;15249;48.092;11.484;2022-10-16T09:26:32;0;;;0;;
27907;SDS011;15249;48.092;11.484;2022-10-16T09:27:33;0;;;0;;
27907;SDS011;15249;48.092;11.484;2022-10-16T09:28:33;0;;;0;;
27907;SDS011;15249;48.092;11.484;2022-10-16T09:29:34;0;;;0;;
27907;SDS011;15249;48.092;11.484;2022-10-16T09:30:34;0;;;0;;
27907;SDS011;15249;48.092;11.484;2022-10-16T09:31:35;0;;;0;;
27907;SDS011;15249;48.092;11.484;2022-10-16T09:32:37;0;;;0;;
27907;SDS011;15249;48.092;11.484;2022-10-16T09:33:39;0;;;0;;
27907;SDS011;15249;48.092;11.484;2022-10-16T09:34:42;0;;;0;;
27907;SDS011;15249;48.092;11.484;2022-10-16T09:35:46;0;;;0;;
27907;SDS011;15249;48.092;11.484;2022-10-16T09:36:49;0;;;0;;
27907;SDS011;15249;48.092;11.484;2022-10-16T09:37:50;0;;;0;;
27907;SDS011;15249;48.092;11.484;2022-10-16T09:39:01;0;;;0;;
27907;SDS011;15249;48.092;11.484;2022-10-16T09:40:04;0;;;0;;
27907;SDS011;15249;48.092;11.484;2022-10-16T09:41:11;0;;;0;;
27907;SDS011;15249;48.092;11.484;2022-10-16T09:42:16;0;;;0;;
27907;SDS011;15249;48.092;11.484;2022-10-16T09:43:20;0;;;0;;
27907;SDS011;15249;48.092;11.484;2022-10-16T09:44:24;0;;;0;;
27907;SDS011;15249;48.092;11.484;2022-10-16T09:45:28;0;;;0;;
27907;SDS011;15249;48.092;11.484;2022-10-16T09:46:30;0;;;0;;
27907;SDS011;15249;48.092;11.484;2022-10-16T09:47:31;0;;;0;;
27907;SDS011;15249;48.092;11.484;2022-10-16T09:48:43;0;;;0;;
27907;SDS011;15249;48.092;11.484;2022-10-16T09:49:50;0;;;0;;
27907;SDS011;15249;48.092;11.484;2022-10-16T09:50:55;0;;;0;;
27907;SDS011;15249;48.092;11.484;2022-10-16T09:52:04;0;;;0;;
27907;SDS011;15249;48.092;11.484;2022-10-16T09:53:10;0;;;0;;
27907;SDS011;15249;48.092;11.484;2022-10-16T09:54:15;0;;;0;;
27907;SDS011;15249;48.092;11.484;2022-10-16T09:55:18;0;;;0;;
27907;SDS011;15249;48.092;11.484;2022-10-16T09:56:23;0;;;0;;
27907;SDS011;15249;48.092;11.484;2022-10-16T09:57:25;0;;;0;;
27907;SDS011;15249;48.092;11.484;2022-10-16T09:58:26;0;;;0;;
27907;SDS011;15249;48.092;11.484;2022-10-16T09:59:30;0;;;0;;
27907;SDS011;15249;48.092;11.484;2022-10-16T10:00:32;0;;;0;;
27907;SDS011;15249;48.092;11.484;2022-10-16T10:01:35;0;;;0;;
27907;SDS011;15249;48.092;11.484;2022-10-16T10:02:38;0;;;0;;
27907;SDS011;15249;48.092;11.484;2022-10-16T10:03:39;0;;;0;;
27907;SDS011;15249;48.092;11.484;2022-10-16T10:04:45;0.5;;;0.4;;
27907;SDS011;15249;48.092;11.484;2022-10-16T10:05:51;0.5;;;0.4;;
27907;SDS011;15249;48.092;11.484;2022-10-16T10:06:53;0.5;;;0.4;;
27907;SDS011;15249;48.092;11.484;2022-10-16T10:07:56;0.5;;;0.4;;
27907;SDS011;15249;48.092;11.484;2022-10-16T10:09:01;0.5;;;0.4;;
27907;SDS011;15249;48.092;11.484;2022-10-16T10:10:05;0.5;;;0.4;;
27907;SDS011;15249;48.092;11.484;2022-10-16T10:11:35;0.5;;;0.4;;
27907;SDS011;15249;48.092;11.484;2022-10-16T10:12:37;0.5;;;0.4;;
27907;SDS011;15249;48.092;11.484;2022-10-16T10:13:38;0.5;;;0.4;;
27907;SDS011;15249;48.092;11.484;2022-10-16T10:14:40;0.5;;;0.4;;
27907;SDS011;15249;48.092;11.484;2022-10-16T10:15:44;0.65;;;0.5;;
27907;SDS011;15249;48.092;11.484;2022-10-16T10:16:46;0.65;;;0.5;;
27907;SDS011;15249;48.092;11.484;2022-10-16T10:17:47;0.65;;;0.5;;
27907;SDS011;15249;48.092;11.484;2022-10-16T10:18:57;0.65;;;0.5;;
27907;SDS011;15249;48.092;11.484;2022-10-16T10:19:58;0.65;;;0.5;;
27907;SDS011;15249;48.092;11.484;2022-10-16T10:21:02;0.65;;;0.5;;
27907;SDS011;15249;48.092;11.484;2022-10-16T10:22:11;0.65;;;0.5;;
27907;SDS011;15249;48.092;11.484;2022-10-16T10:23:19;0.65;;;0.5;;
27907;SDS011;15249;48.092;11.484;2022-10-16T10:24:21;0.65;;;0.5;;
27907;SDS011;15249;48.092;11.484;2022-10-16T10:25:39;0.65;;;0.5;;
27907;SDS011;15249;48.092;11.484;2022-10-16T10:26:50;0.7;;;0.7;;
27907;SDS011;15249;48.092;11.484;2022-10-16T10:28:04;0.7;;;0.7;;
27907;SDS011;15249;48.092;11.484;2022-10-16T10:29:16;0.7;;;0.7;;
27907;SDS011;15249;48.092;11.484;2022-10-16T10:30:23;0.7;;;0.7;;
27907;SDS011;15249;48.092;11.484;2022-10-16T10:31:29;0.7;;;0.7;;
27907;SDS011;15249;48.092;11.484;2022-10-16T10:32:37;0.7;;;0.7;;
27907;SDS011;15249;48.092;11.484;2022-10-16T10:33:49;0.7;;;0.7;;
27907;SDS011;15249;48.092;11.484;2022-10-16T10:34:58;0.7;;;0.7;;
27907;SDS011;15249;48.092;11.484;2022-10-16T10:36:12;0.7;;;0.7;;
27907;SDS011;15249;48.092;11.484;2022-10-16T10:37:31;0.5;;;0.5;;
27907;SDS011;15249;48.092;11.484;2022-10-16T10:38:45;0.5;;;0.5;;
27907;SDS011;15249;48.092;11.484;2022-10-16T10:39:51;0.5;;;0.5;;
27907;SDS011;15249;48.092;11.484;2022-10-16T10:41:04;0.5;;;0.5;;
27907;SDS011;15249;48.092;11.484;2022-10-16T10:42:18;0.5;;;0.5;;
27907;SDS011;15249;48.092;11.484;2022-10-16T10:43:29;0.5;;;0.5;;
27907;SDS011;15249;48.092;11.484;2022-10-16T10:44:49;0.5;;;0.5;;
27907;SDS011;15249;48.092;11.484;2022-10-16T10:45:58;0.5;;;0.5;;
27907;SDS011;15249;48.092;11.484;2022-10-16T10:47:04;0.5;;;0.4;;
27907;SDS011;15249;48.092;11.484;2022-10-16T10:48:18;0.5;;;0.4;;
27907;SDS011;15249;48.092;11.484;2022-10-16T10:49:31;0.5;;;0.4;;
27907;SDS011;15249;48.092;11.484;2022-10-16T10:50:42;0.5;;;0.4;;
27907;SDS011;15249;48.092;11.484;2022-10-16T10:51:51;0.5;;;0.4;;
27907;SDS011;15249;48.092;11.484;2022-10-16T10:53:04;0.5;;;0.4;;
27907;SDS011;15249;48.092;11.484;2022-10-16T10:54:14;0.5;;;0.4;;
27907;SDS011;15249;48.092;11.484;2022-10-16T10:55:23;0.5;;;0.4;;
27907;SDS011;15249;48.092;11.484;2022-10-16T10:56:39;0.5;;;0.4;;
27907;SDS011;15249;48.092;11.484;2022-10-16T10:57:48;0.4;;;0.4;;
27907;SDS011;15249;48.092;11.484;2022-10-16T10:59:32;0.4;;;0.4;;
27907;SDS011;15249;48.092;11.484;2022-10-16T11:00:46;0.4;;;0.4;;
27907;SDS011;15249;48.092;11.484;2022-10-16T11:01:56;0.4;;;0.4;;
27907;SDS011;15249;48.092;11.484;2022-10-16T11:03:02;0.4;;;0.4;;
27907;SDS011;15249;48.092;11.484;2022-10-16T11:09:17;0.7;;;0.4;;
27907;SDS011;15249;48.092;11.484;2022-10-16T11:10:22;0.7;;;0.4;;
27907;SDS011;15249;48.092;11.484;2022-10-16T11:11:27;0.7;;;0.4;;
27907;SDS011;15249;48.092;11.484;2022-10-16T11:12:34;0.7;;;0.4;;
27907;SDS011;15249;48.092;11.484;2022-10-16T11:13:38;0.7;;;0.4;;
27907;SDS011;15249;48.092;11.484;2022-10-16T11:14:47;0.7;;;0.4;;
27907;SDS011;15249;48.092;11.484;2022-10-16T11:15:56;0.7;;;0.4;;
27907;SDS011;15249;48.092;11.484;2022-10-16T11:17:01;0.7;;;0.4;;
27907;SDS011;15249;48.092;11.484;2022-10-16T11:18:11;0.7;;;0.4;;
27907;SDS011;15249;48.092;11.484;2022-10-16T11:19:22;0.8;;;0.4;;
27907;SDS011;15249;48.092;11.484;2022-10-16T11:20:32;0.8;;;0.4;;
27907;SDS011;15249;48.092;11.484;2022-10-16T11:21:36;0.8;;;0.4;;
27907;SDS011;15249;48.092;11.484;2022-10-16T11:22:44;0.8;;;0.4;;
27907;SDS011;15249;48.092;11.484;2022-10-16T11:23:50;0.8;;;0.4;;
27907;SDS011;15249;48.092;11.484;2022-10-16T11:24:59;0.8;;;0.4;;
27907;SDS011;15249;48.092;11.484;2022-10-16T11:26:10;0.8;;;0.4;;
27907;SDS011;15249;48.092;11.484;2022-10-16T11:27:15;0.8;;;0.4;;
27907;SDS011;15249;48.092;11.484;2022-10-16T11:28:20;0.8;;;0.4;;
27907;SDS011;15249;48.092;11.484;2022-10-16T11:29:28;0.8;;;0.4;;
27907;SDS011;15249;48.092;11.484;2022-10-16T11:30:33;0.8;;;0.4;;
27907;SDS011;15249;48.092;11.484;2022-10-16T11:31:40;0.8;;;0.4;;
27907;SDS011;15249;48.092;11.484;2022-10-16T11:32:49;0.8;;;0.4;;
27907;SDS011;15249;48.092;11.484;2022-10-16T11:34:01;0.8;;;0.4;;
27907;SDS011;15249;48.092;11.484;2022-10-16T11:35:10;0.8;;;0.4;;
27907;SDS011;15249;48.092;11.484;2022-10-16T11:36:18;0.8;;;0.4;;
27907;SDS011;15249;48.092;11.484;2022-10-16T11:37:23;0.8;;;0.4;;
27907;SDS011;15249;48.092;11.484;2022-10-16T11:38:32;0.8;;;0.4;;
27907;SDS011;15249;48.092;11.484;2022-10-16T11:39:39;0.8;;;0.4;;
27907;SDS011;15249;48.092;11.484;2022-10-16T11:40:41;0.8;;;0.4;;
27907;SDS011;15249;48.092;11.484;2022-10-16T11:41:47;0.8;;;0.4;;
27907;SDS011;15249;48.092;11.484;2022-10-16T11:42:51;0.8;;;0.4;;
27907;SDS011;15249;48.092;11.484;2022-10-16T11:44:01;0.8;;;0.4;;
27907;SDS011;15249;48.092;11.484;2022-10-16T11:45:17;0.8;;;0.4;;
27907;SDS011;15249;48.092;11.484;2022-10-16T11:46:26;0.8;;;0.4;;
27907;SDS011;15249;48.092;11.484;2022-10-16T11:47:30;0.8;;;0.4;;
27907;SDS011;15249;48.092;11.484;2022-10-16T11:48:35;0.8;;;0.4;;
27907;SDS011;15249;48.092;11.484;2022-10-16T11:49:41;0.8;;;0.4;;
27907;SDS011;15249;48.092;11.484;2022-10-16T11:50:45;0.8;;;0.4;;
27907;SDS011;15249;48.092;11.484;2022-10-16T11:51:52;0.5;;;0.2;;
27907;SDS011;15249;48.092;11.484;2022-10-16T11:53:09;0.5;;;0.2;;
27907;SDS011;15249;48.092;11.484;2022-10-16T11:54:18;0.5;;;0.2;;
27907;SDS011;15249;48.092;11.484;2022-10-16T11:55:27;0.5;;;0.2;;
27907;SDS011;15249;48.092;11.484;2022-10-16T11:56:33;0.5;;;0.2;;
27907;SDS011;15249;48.092;11.484;2022-10-16T11:57:40;0.5;;;0.2;;
27907;SDS011;15249;48.092;11.484;2022-10-16T11:58:48;0.5;;;0.2;;
27907;SDS011;15249;48.092;11.484;2022-10-16T11:59:56;0.5;;;0.2;;
27907;SDS011;15249;48.092;11.484;2022-10-16T12:01:02;0.5;;;0.2;;
27907;SDS011;15249;48.092;11.484;2022-10-16T12:02:26;0.3;;;0.3;;
27907;SDS011;15249;48.092;11.484;2022-10-16T12:03:34;0.3;;;0.3;;
27907;SDS011;15249;48.092;11.484;2022-10-16T12:04:45;0.3;;;0.3;;
27907;SDS011;15249;48.092;11.484;2022-10-16T12:05:54;0.3;;;0.3;;
27907;SDS011;15249;48.092;11.484;2022-10-16T12:07:02;0.3;;;0.3;;
27907;SDS011;15249;48.092;11.484;2022-10-16T12:08:07;0.3;;;0.3;;
27907;SDS011;15249;48.092;11.484;2022-10-16T12:09:13;0.3;;;0.3;;
27907;SDS011;15249;48.092;11.484;2022-10-16T12:10:21;0.3;;;0.3;;
27907;SDS011;15249;48.092;11.484;2022-10-16T12:11:24;0.3;;;0.3;;
27907;SDS011;15249;48.092;11.484;2022-10-16T12:12:37;0.3;;;0.3;;
27907;SDS011;15249;48.092;11.484;2022-10-16T12:13:40;0.3;;;0.3;;
27907;SDS011;15249;48.092;11.484;2022-10-16T12:14:41;0.3;;;0.3;;
27907;SDS011;15249;48.092;11.484;2022-10-16T12:15:42;0.3;;;0.3;;
27907;SDS011;15249;48.092;11.484;2022-10-16T12:16:50;0.3;;;0.3;;
27907;SDS011;15249;48.092;11.484;2022-10-16T12:17:53;0.3;;;0.3;;
27907;SDS011;15249;48.092;11.484;2022-10-16T12:19:03;0.3;;;0.3;;
27907;SDS011;15249;48.092;11.484;2022-10-16T12:20:19;0.3;;;0.3;;
27907;SDS011;15249;48.092;11.484;2022-10-16T12:21:23;0.3;;;0.3;;
27907;SDS011;15249;48.092;11.484;2022-10-16T12:22:31;0.3;;;0.3;;
27907;SDS011;15249;48.092;11.484;2022-10-16T12:23:32;0.4;;;0.3;;
27907;SDS011;15249;48.092;11.484;2022-10-16T12:24:37;0.4;;;0.3;;
27907;SDS011;15249;48.092;11.484;2022-10-16T12:25:53;0.4;;;0.3;;
27907;SDS011;15249;48.092;11.484;2022-10-16T12:26:55;0.4;;;0.3;;
27907;SDS011;15249;48.092;11.484;2022-10-16T12:27:58;0.4;;;0.3;;
27907;SDS011;15249;48.092;11.484;2022-10-16T12:29:12;0.4;;;0.3;;
27907;SDS011;15249;48.092;11.484;2022-10-16T12:30:20;0.4;;;0.3;;
27907;SDS011;15249;48.092;11.484;2022-10-16T12:31:24;0.4;;;0.3;;
27907;SDS011;15249;48.092;11.484;2022-10-16T12:32:39;0.4;;;0.3;;
27907;SDS011;15249;48.092;11.484;2022-10-16T12:33:40;0.3;;;0.3;;
27907;SDS011;15249;48.092;11.484;2022-10-16T12:34:52;0.3;;;0.3;;
27907;SDS011;15249;48.092;11.484;2022-10-16T12:35:53;0.3;;;0.3;;
27907;SDS011;15249;48.092;11.484;2022-10-16T12:36:54;0.3;;;0.3;;
27907;SDS011;15249;48.092;11.484;2022-10-16T12:38:08;0.3;;;0.3;;
27907;SDS011;15249;48.092;11.484;2022-10-16T12:39:20;0.3;;;0.3;;
27907;SDS011;15249;48.092;11.484;2022-10-16T12:40:25;0.3;;;0.3;;
27907;SDS011;15249;48.092;11.484;2022-10-16T12:41:29;0.3;;;0.3;;
27907;SDS011;15249;48.092;11.484;2022-10-16T12:42:32;0.3;;;0.3;;
27907;SDS011;15249;48.092;11.484;2022-10-16T12:43:36;0.3;;;0.3;;
27907;SDS011;15249;48.092;11.484;2022-10-16T12:44:39;0.55;;;0.4;;
27907;SDS011;15249;48.092;11.484;2022-10-16T12:45:40;0.55;;;0.4;;
27907;SDS011;15249;48.092;11.484;2022-10-16T12:46:40;0.55;;;0.4;;
27907;SDS011;15249;48.092;11.484;2022-10-16T12:47:48;0.55;;;0.4;;
27907;SDS011;15249;48.092;11.484;2022-10-16T12:48:50;0.55;;;0.4;;
27907;SDS011;15249;48.092;11.484;2022-10-16T12:49:52;0.55;;;0.4;;
27907;SDS011;15249;48.092;11.484;2022-10-16T12:50:54;0.55;;;0.4;;
27907;SDS011;15249;48.092;11.484;2022-10-16T12:51:54;0.55;;;0.4;;
27907;SDS011;15249;48.092;11.484;2022-10-16T12:52:55;0.55;;;0.4;;
27907;SDS011;15249;48.092;11.484;2022-10-16T12:53:59;0.55;;;0.4;;
27907;SDS011;15249;48.092;11.484;2022-10-16T12:55:00;3;;;0.7;;
27907;SDS011;15249;48.092;11.484;2022-10-16T12:56:03;3;;;0.7;;
27907;SDS011;15249;48.092;11.484;2022-10-16T12:57:17;3;;;0.7;;
27907;SDS011;15249;48.092;11.484;2022-10-16T12:58:36;3;;;0.7;;
27907;SDS011;15249;48.092;11.484;2022-10-16T12:59:51;3;;;0.7;;
27907;SDS011;15249;48.092;11.484;2022-10-16T13:01:01;3;;;0.7;;
27907;SDS011;15249;48.092;11.484;2022-10-16T13:02:31;3;;;0.7;;
27907;SDS011;15249;48.092;11.484;2022-10-16T13:03:52;3;;;0.7;;
27907;SDS011;15249;48.092;11.484;2022-10-16T13:05:17;3;;;0.7;;
27907;SDS011;15249;48.092;11.484;2022-10-16T13:06:28;3;;;0.7;;
27907;SDS011;15249;48.092;11.484;2022-10-16T13:07:40;3;;;0.7;;
27907;SDS011;15249;48.092;11.484;2022-10-16T13:08:58;3;;;0.7;;
27907;SDS011;15249;48.092;11.484;2022-10-16T13:11:13;3;;;0.7;;
27907;SDS011;15249;48.092;11.484;2022-10-16T13:12:25;3;;;0.7;;
27907;SDS011;15249;48.092;11.484;2022-10-16T13:13:46;3;;;0.7;;
27907;SDS011;15249;48.092;11.484;2022-10-16T13:15:00;3;;;0.7;;
27907;SDS011;15249;48.092;11.484;2022-10-16T13:16:10;3;;;0.7;;
27907;SDS011;15249;48.092;11.484;2022-10-16T13:17:20;0.7;;;0.6;;
27907;SDS011;15249;48.092;11.484;2022-10-16T13:18:32;0.7;;;0.6;;
27907;SDS011;15249;48.092;11.484;2022-10-16T13:19:45;0.7;;;0.6;;
27907;SDS011;15249;48.092;11.484;2022-10-16T13:20:55;0.7;;;0.6;;
27907;SDS011;15249;48.092;11.484;2022-10-16T13:22:05;0.7;;;0.6;;
27907;SDS011;15249;48.092;11.484;2022-10-16T13:23:15;0.7;;;0.6;;
27907;SDS011;15249;48.092;11.484;2022-10-16T13:24:23;0.7;;;0.6;;
27907;SDS011;15249;48.092;11.484;2022-10-16T13:25:40;0.7;;;0.6;;
27907;SDS011;15249;48.092;11.484;2022-10-16T13:26:51;0.7;;;0.6;;
27907;SDS011;15249;48.092;11.484;2022-10-16T13:27:59;1.35;;;0.65;;
27907;SDS011;15249;48.092;11.484;2022-10-16T13:29:01;1.35;;;0.65;;
27907;SDS011;15249;48.092;11.484;2022-10-16T13:30:08;1.35;;;0.65;;
27907;SDS011;15249;48.092;11.484;2022-10-16T13:31:14;1.35;;;0.65;;
27907;SDS011;15249;48.092;11.484;2022-10-16T13:32:19;1.35;;;0.65;;
27907;SDS011;15249;48.092;11.484;2022-10-16T13:33:20;1.35;;;0.65;;
27907;SDS011;15249;48.092;11.484;2022-10-16T13:34:29;1.35;;;0.65;;
27907;SDS011;15249;48.092;11.484;2022-10-16T13:35:30;1.35;;;0.65;;
27907;SDS011;15249;48.092;11.484;2022-10-16T13:36:34;1.35;;;0.65;;
27907;SDS011;15249;48.092;11.484;2022-10-16T13:37:36;1.35;;;0.65;;
27907;SDS011;15249;48.092;11.484;2022-10-16T13:38:36;1.4;;;0.75;;
27907;SDS011;15249;48.092;11.484;2022-10-16T13:39:37;1.4;;;0.75;;
27907;SDS011;15249;48.092;11.484;2022-10-16T13:40:47;1.4;;;0.75;;
27907;SDS011;15249;48.092;11.484;2022-10-16T13:41:57;1.4;;;0.75;;
27907;SDS011;15249;48.092;11.484;2022-10-16T13:43:02;1.4;;;0.75;;
27907;SDS011;15249;48.092;11.484;2022-10-16T13:44:02;1.4;;;0.75;;
27907;SDS011;15249;48.092;11.484;2022-10-16T13:45:04;1.4;;;0.75;;
27907;SDS011;15249;48.092;11.484;2022-10-16T13:46:06;1.4;;;0.75;;
27907;SDS011;15249;48.092;11.484;2022-10-16T13:47:16;1.4;;;0.75;;
27907;SDS011;15249;48.092;11.484;2022-10-16T13:48:17;1.4;;;0.75;;
27907;SDS011;15249;48.092;11.484;2022-10-16T13:49:20;0.7;;;0.7;;
27907;SDS011;15249;48.092;11.484;2022-10-16T13:50:20;0.7;;;0.7;;
27907;SDS011;15249;48.092;11.484;2022-10-16T13:51:21;0.7;;;0.7;;
27907;SDS011;15249;48.092;11.484;2022-10-16T13:52:22;0.7;;;0.7;;
27907;SDS011;15249;48.092;11.484;2022-10-16T13:53:22;0.7;;;0.7;;
27907;SDS011;15249;48.092;11.484;2022-10-16T13:54:23;0.7;;;0.7;;
27907;SDS011;15249;48.092;11.484;2022-10-16T13:55:25;0.7;;;0.7;;
27907;SDS011;15249;48.092;11.484;2022-10-16T13:56:26;0.7;;;0.7;;
27907;SDS011;15249;48.092;11.484;2022-10-16T13:57:28;0.7;;;0.7;;
27907;SDS011;15249;48.092;11.484;2022-10-16T13:58:29;0.7;;;0.7;;
27907;SDS011;15249;48.092;11.484;2022-10-16T13:59:33;1.3;;;0.7;;
27907;SDS011;15249;48.092;11.484;2022-10-16T14:00:35;1.3;;;0.7;;
27907;SDS011;15249;48.092;11.484;2022-10-16T14:01:39;1.3;;;0.7;;
27907;SDS011;15249;48.092;11.484;2022-10-16T14:02:42;1.3;;;0.7;;
27907;SDS011;15249;48.092;11.484;2022-10-16T14:03:43;1.3;;;0.7;;
27907;SDS011;15249;48.092;11.484;2022-10-16T14:04:45;1.3;;;0.7;;
27907;SDS011;15249;48.092;11.484;2022-10-16T14:05:48;1.3;;;0.7;;
27907;SDS011;15249;48.092;11.484;2022-10-16T14:06:50;1.3;;;0.7;;
27907;SDS011;15249;48.092;11.484;2022-10-16T14:07:51;1.3;;;0.7;;
27907;SDS011;15249;48.092;11.484;2022-10-16T14:08:57;1.3;;;0.7;;
27907;SDS011;15249;48.092;11.484;2022-10-16T14:10:02;0.7;;;0.6;;
27907;SDS011;15249;48.092;11.484;2022-10-16T14:11:05;0.7;;;0.6;;
27907;SDS011;15249;48.092;11.484;2022-10-16T14:12:07;0.7;;;0.6;;
27907;SDS011;15249;48.092;11.484;2022-10-16T14:13:12;0.7;;;0.6;;
27907;SDS011;15249;48.092;11.484;2022-10-16T14:14:16;0.7;;;0.6;;
27907;SDS011;15249;48.092;11.484;2022-10-16T14:15:18;0.7;;;0.6;;
27907;SDS011;15249;48.092;11.484;2022-10-16T14:16:20;0.7;;;0.6;;
27907;SDS011;15249;48.092;11.484;2022-10-16T14:17:23;0.7;;;0.6;;
27907;SDS011;15249;48.092;11.484;2022-10-16T14:18:26;0.7;;;0.6;;
27907;SDS011;15249;48.092;11.484;2022-10-16T14:19:29;0.7;;;0.6;;
27907;SDS011;15249;48.092;11.484;2022-10-16T14:20:32;0.7;;;0.6;;
27907;SDS011;15249;48.092;11.484;2022-10-16T14:21:34;0.7;;;0.6;;
27907;SDS011;15249;48.092;11.484;2022-10-16T14:22:35;0.7;;;0.6;;
27907;SDS011;15249;48.092;11.484;2022-10-16T14:23:38;0.7;;;0.6;;
27907;SDS011;15249;48.092;11.484;2022-10-16T14:24:40;0.7;;;0.6;;
27907;SDS011;15249;48.092;11.484;2022-10-16T14:25:41;0.7;;;0.6;;
27907;SDS011;15249;48.092;11.484;2022-10-16T14:26:42;0.7;;;0.6;;
27907;SDS011;15249;48.092;11.484;2022-10-16T14:27:43;0.7;;;0.6;;
27907;SDS011;15249;48.092;11.484;2022-10-16T14:28:44;0.7;;;0.6;;
27907;SDS011;15249;48.092;11.484;2022-10-16T14:29:46;0.7;;;0.6;;
27907;SDS011;15249;48.092;11.484;2022-10-16T14:30:51;0.7;;;0.6;;
27907;SDS011;15249;48.092;11.484;2022-10-16T14:31:55;2.05;;;0.8;;
27907;SDS011;15249;48.092;11.484;2022-10-16T14:32:57;2.05;;;0.8;;
27907;SDS011;15249;48.092;11.484;2022-10-16T14:33:59;2.05;;;0.8;;
27907;SDS011;15249;48.092;11.484;2022-10-16T14:35:00;2.05;;;0.8;;
27907;SDS011;15249;48.092;11.484;2022-10-16T14:36:02;2.05;;;0.8;;
27907;SDS011;15249;48.092;11.484;2022-10-16T14:37:08;2.05;;;0.8;;
27907;SDS011;15249;48.092;11.484;2022-10-16T14:38:17;2.05;;;0.8;;
27907;SDS011;15249;48.092;11.484;2022-10-16T14:39:20;2.05;;;0.8;;
27907;SDS011;15249;48.092;11.484;2022-10-16T14:40:23;2.05;;;0.8;;
27907;SDS011;15249;48.092;11.484;2022-10-16T14:41:25;2.05;;;0.8;;
27907;SDS011;15249;48.092;11.484;2022-10-16T14:42:26;1.05;;;0.5;;
27907;SDS011;15249;48.092;11.484;2022-10-16T14:43:30;1.05;;;0.5;;
27907;SDS011;15249;48.092;11.484;2022-10-16T14:44:33;1.05;;;0.5;;
27907;SDS011;15249;48.092;11.484;2022-10-16T14:45:34;1.05;;;0.5;;
27907;SDS011;15249;48.092;11.484;2022-10-16T14:46:36;1.05;;;0.5;;
27907;SDS011;15249;48.092;11.484;2022-10-16T14:47:44;1.05;;;0.5;;
27907;SDS011;15249;48.092;11.484;2022-10-16T14:48:50;1.05;;;0.5;;
27907;SDS011;15249;48.092;11.484;2022-10-16T14:49:51;1.05;;;0.5;;
27907;SDS011;15249;48.092;11.484;2022-10-16T14:50:52;1.05;;;0.5;;
27907;SDS011;15249;48.092;11.484;2022-10-16T14:51:52;1.05;;;0.5;;
27907;SDS011;15249;48.092;11.484;2022-10-16T14:52:53;1.55;;;0.7;;
27907;SDS011;15249;48.092;11.484;2022-10-16T14:53:53;1.55;;;0.7;;
27907;SDS011;15249;48.092;11.484;2022-10-16T14:54:56;1.55;;;0.7;;
27907;SDS011;15249;48.092;11.484;2022-10-16T14:55:56;1.55;;;0.7;;
27907;SDS011;15249;48.092;11.484;2022-10-16T14:56:57;1.55;;;0.7;;
27907;SDS011;15249;48.092;11.484;2022-10-16T14:57:58;1.55;;;0.7;;
27907;SDS011;15249;48.092;11.484;2022-10-16T14:58:59;1.55;;;0.7;;
27907;SDS011;15249;48.092;11.484;2022-10-16T15:00:01;1.55;;;0.7;;
27907;SDS011;15249;48.092;11.484;2022-10-16T15:01:02;1.55;;;0.7;;
27907;SDS011;15249;48.092;11.484;2022-10-16T15:02:06;1.55;;;0.7;;
27907;SDS011;15249;48.092;11.484;2022-10-16T15:03:20;0.5;;;0.5;;
27907;SDS011;15249;48.092;11.484;2022-10-16T15:04:21;0.5;;;0.5;;
27907;SDS011;15249;48.092;11.484;2022-10-16T15:05:22;0.5;;;0.5;;
27907;SDS011;15249;48.092;11.484;2022-10-16T15:06:24;0.5;;;0.5;;
27907;SDS011;15249;48.092;11.484;2022-10-16T15:07:25;0.5;;;0.5;;
27907;SDS011;15249;48.092;11.484;2022-10-16T15:08:25;0.5;;;0.5;;
27907;SDS011;15249;48.092;11.484;2022-10-16T15:09:26;0.5;;;0.5;;
27907;SDS011;15249;48.092;11.484;2022-10-16T15:10:27;0.5;;;0.5;;
27907;SDS011;15249;48.092;11.484;2022-10-16T15:11:29;0.5;;;0.5;;
27907;SDS011;15249;48.092;11.484;2022-10-16T15:12:32;0.5;;;0.5;;
27907;SDS011;15249;48.092;11.484;2022-10-16T15:13:33;0.5;;;0.5;;
27907;SDS011;15249;48.092;11.484;2022-10-16T15:14:33;1.1;;;0.7;;
27907;SDS011;15249;48.092;11.484;2022-10-16T15:15:34;1.1;;;0.7;;
27907;SDS011;15249;48.092;11.484;2022-10-16T15:16:37;1.1;;;0.7;;
27907;SDS011;15249;48.092;11.484;2022-10-16T15:17:38;1.1;;;0.7;;
27907;SDS011;15249;48.092;11.484;2022-10-16T15:18:38;1.1;;;0.7;;